Accueil
METAR-TAF:

METAR-TAF

Aéroports :

Amsterdam, Pays-Bas

Aéroport d'Amsterdam-Schiphol

latitude: 52-18N, longitude: 004-46E, altitude: -4 m

Observation

Le bulletin a été fait il y a 34 minutes, à 04:25 UTC
Vent 7 kt de sud-est
Température -2°C
Humidité 86%
Pression 1025 hPa
Visibilité: 9000 m

METAR: EHAM 180425Z 13007KT 9000 NSC M02/M04 Q1025 NOSIG

Heure: 05:59 (04:59 UTC)

Prévision

Le bulletin a été fait il y a 6 heures et 19 minutes, à 22:40 UTC
Prévision valable du 18 à 00 UTC au 19 à 06 UTC
Vent 5 kt de sud/sud-est
Visibilité 10 km ou plus
pas de nuages en-dessous de 1500 mètres et pas de cumulonimbus.
Probabilité 30%
du 18 à 02 UTC au 18 à 08 UTC
Visibilité: 5000 m
Brouillard mince
Probabilité 30%
du 19 à 00 UTC au 19 à 06 UTC
Visibilité: 5000 m
brume

TAF: EHAM 172240Z 1800/1906 15005KT CAVOK PROB30 1802/1808 5000 MIFG PROB30 1900/1906 5000 BR

Observations et prévisions météorologiques de plus de 4000 aéroports (messages METAR et TAF).

Les stations disponibles sont représentées par des disques jaunes et rouges sur la carte.

Passer la souris dessus pour voir le nom de la station.

Cliquer dessus pour voir les observations et prévisions météorologiques.

Pour changer de carte: cliquez sur les boutons verts avec une croix noire pour zoomer, sur le bouton vert avec un tiret pour effectuer un zoom arrière, ou sur les flèches vertes pour les cartes adjacentes.


METAR-TAF: